Time;durP1;ratioP1;P1;durP2;ratioP2;P2;SDS_P1;SDS_P2;PMS_P1;PMS_P2;Temp;Humidity;BMP_temperature;BMP_pressure;BME280_temperature;BME280_humidity;BME280_pressure;Samples;Min_cycle;Max_cycle;Signal;HPM_P1;HPM_P2
2021/04/23 00:01:02;;;;;;;4.00;2.13;;;6.50;99.90;;;;;;5046393;28;20029;-80
2021/04/23 00:03:41;;;;;;;8.10;2.90;;;6.50;99.90;;;;;;5063942;28;20119;-79
2021/04/23 00:06:24;;;;;;;6.35;2.63;;;6.50;99.90;;;;;;5058746;28;20812;-79
2021/04/23 00:08:53;;;;;;;8.10;2.70;;;6.50;99.90;;;;;;5049388;28;20033;-78
2021/04/23 00:11:31;;;;;;;7.38;3.25;;;6.50;22.70;;;;;;5055645;28;20021;-78
2021/04/23 00:13:57;;;;;;;5.60;2.72;;;6.40;99.90;;;;;;5052980;28;20460;-79
2021/04/23 00:16:23;;;;;;;8.18;3.17;;;6.30;99.90;;;;;;5042670;28;20509;-80
2021/04/23 00:18:49;;;;;;;4.82;2.55;;;6.20;1.00;;;;;;5065154;28;20092;-79
2021/04/23 00:21:18;;;;;;;7.40;2.95;;;6.30;1.00;;;;;;5062649;28;20021;-80
2021/04/23 00:23:46;;;;;;;7.60;2.80;;;6.20;55.60;;;;;;5051586;28;20022;-77
2021/04/23 00:26:12;;;;;;;7.72;2.90;;;6.20;99.90;;;;;;5055183;28;20104;-77
2021/04/23 00:28:38;;;;;;;2.78;1.90;;;6.30;1.00;;;;;;5068533;28;20025;-76
2021/04/23 00:31:04;;;;;;;10.45;3.22;;;6.30;99.90;;;;;;5075811;28;20024;-75
2021/04/23 00:33:31;;;;;;;5.30;2.83;;;6.20;99.90;;;;;;5075804;28;20041;-77
2021/04/23 00:35:59;;;;;;;6.05;3.60;;;6.20;99.90;;;;;;5055591;28;20051;-79
2021/04/23 00:38:27;;;;;;;6.82;3.13;;;6.10;99.90;;;;;;5050409;28;20036;-78
2021/04/23 00:41:01;;;;;;;8.07;2.80;;;6.10;99.90;;;;;;5062779;28;20025;-80
2021/04/23 00:43:30;;;;;;;7.90;2.90;;;6.10;58.70;;;;;;5052150;28;20036;-79
2021/04/23 00:45:58;;;;;;;7.05;3.03;;;6.10;98.00;;;;;;5050543;28;20032;-79
2021/04/23 00:48:27;;;;;;;6.38;2.38;;;6.00;99.90;;;;;;5052141;28;20036;-78
2021/04/23 00:51:25;;;;;;;5.07;2.67;;;6.00;1.00;;;;;;5054068;28;20021;-80
2021/04/23 00:53:52;;;;;;;4.85;2.40;;;5.90;60.60;;;;;;5034758;28;20040;-78
2021/04/23 00:56:22;;;;;;;4.20;2.30;;;6.00;51.10;;;;;;5058942;28;20025;-79
2021/04/23 00:58:49;;;;;;;5.07;2.50;;;6.00;99.90;;;;;;5066999;28;20026;-77
2021/04/23 01:01:36;;;;;;;6.82;3.10;;;5.90;1.00;;;;;;5057152;28;20041;-78
2021/04/23 01:04:04;;;;;;;8.93;2.83;;;5.80;99.90;;;;;;5060614;28;20029;-79
2021/04/23 01:06:34;;;;;;;5.63;2.92;;;5.70;99.90;;;;;;5059993;28;20025;-79
2021/04/23 01:09:09;;;;;;;5.10;2.88;;;5.70;1.00;;;;;;5052509;28;20033;-80
2021/04/23 01:11:35;;;;;;;6.93;2.72;;;5.70;52.30;;;;;;5052065;28;20029;-77
2021/04/23 01:14:02;;;;;;;8.50;3.17;;;5.70;92.90;;;;;;5059169;28;20061;-77
2021/04/23 01:16:28;;;;;;;4.93;2.75;;;5.60;39.40;;;;;;5066047;28;20028;-78
2021/04/23 01:18:55;;;;;;;6.20;3.13;;;5.70;10.60;;;;;;5062892;28;20021;-79
2021/04/23 01:21:30;;;;;;;10.05;3.58;;;5.60;99.90;;;;;;5063743;28;20017;-76
2021/04/23 01:23:59;;;;;;;6.88;3.38;;;5.60;99.90;;;;;;5062820;28;20033;-77
2021/04/23 01:26:34;;;;;;;4.82;2.75;;;5.60;99.90;;;;;;5057671;28;20044;-77
2021/04/23 01:29:00;;;;;;;6.18;2.95;;;5.60;99.90;;;;;;5059304;28;20116;-76
2021/04/23 01:31:30;;;;;;;6.72;2.55;;;5.50;1.00;;;;;;5057583;28;20041;-77
2021/04/23 01:33:59;;;;;;;8.77;3.33;;;5.50;99.90;;;;;;5060722;28;20096;-77
2021/04/23 01:36:28;;;;;;;9.60;4.28;;;5.50;99.90;;;;;;5064326;28;20457;-77
2021/04/23 01:38:53;;;;;;;5.63;3.22;;;5.50;1.00;;;;;;5053283;28;20067;-78
2021/04/23 01:41:23;;;;;;;11.18;2.95;;;5.50;80.90;;;;;;5049990;28;20022;-77
2021/04/23 01:43:52;;;;;;;12.88;2.65;;;5.50;99.90;;;;;;5052595;28;20473;-77
2021/04/23 01:46:18;;;;;;;9.82;3.45;;;5.40;99.90;;;;;;5052866;28;20032;-77
2021/04/23 01:48:44;;;;;;;5.40;2.50;;;5.30;25.50;;;;;;5063844;28;20033;-78
2021/04/23 01:51:12;;;;;;;6.07;2.70;;;5.30;1.00;;;;;;5058941;28;20081;-78
2021/04/23 01:53:39;;;;;;;4.00;3.05;;;5.30;1.00;;;;;;5057338;28;20036;-78
2021/04/23 01:56:05;;;;;;;7.25;2.92;;;5.30;79.00;;;;;;5049510;28;20021;-77
2021/04/23 01:58:32;;;;;;;5.30;2.28;;;5.20;99.90;;;;;;5058773;28;20049;-78
2021/04/23 02:00:58;;;;;;;6.00;2.65;;;5.20;99.90;;;;;;5064642;28;20032;-77
2021/04/23 02:03:26;;;;;;;4.60;2.50;;;5.20;99.90;;;;;;5067751;28;20025;-76
2021/04/23 02:05:55;;;;;;;4.50;2.35;;;5.20;99.90;;;;;;5062340;28;20021;-76
2021/04/23 02:08:23;;;;;;;6.93;2.60;;;5.20;99.90;;;;;;5057700;28;20053;-77
2021/04/23 02:10:53;;;;;;;6.57;2.30;;;5.10;99.90;;;;;;5046820;28;20029;-77
2021/04/23 02:13:23;;;;;;;7.57;2.88;;;5.10;99.90;;;;;;5049355;28;20025;-77
2021/04/23 02:15:49;;;;;;;5.90;2.63;;;5.10;1.00;;;;;;5054042;28;20045;-75
2021/04/23 02:18:15;;;;;;;6.90;3.00;;;5.00;1.00;;;;;;5059356;28;20036;-76
2021/04/23 02:20:41;;;;;;;6.88;3.05;;;5.10;1.00;;;;;;5049160;28;20025;-78
2021/04/23 02:23:10;;;;;;;5.68;2.72;;;5.10;1.00;;;;;;5058846;28;20112;-78
2021/04/23 02:25:39;;;;;;;5.90;4.07;;;5.00;7.60;;;;;;5062943;28;20404;-77
2021/04/23 02:28:09;;;;;;;6.88;3.45;;;5.00;75.00;;;;;;5061071;28;20403;-76
2021/04/23 02:30:41;;;;;;;5.80;3.33;;;5.00;87.70;;;;;;5065176;28;20029;-76
2021/04/23 02:33:10;;;;;;;4.38;2.50;;;4.90;99.90;;;;;;5066435;28;20098;-77
2021/04/23 02:35:36;;;;;;;6.50;3.33;;;4.90;99.90;;;;;;5070328;28;20032;-76
2021/04/23 02:38:02;;;;;;;8.95;2.90;;;4.90;99.90;;;;;;5075322;28;20074;-76
2021/04/23 02:40:29;;;;;;;9.85;2.67;;;4.80;99.90;;;;;;5068167;28;20021;-77
2021/04/23 02:42:57;;;;;;;5.20;3.13;;;4.80;99.90;;;;;;5062694;28;20026;-77
2021/04/23 02:45:26;;;;;;;7.10;2.53;;;4.80;99.90;;;;;;5058103;28;20087;-78
2021/04/23 02:47:56;;;;;;;7.68;3.10;;;4.80;99.90;;;;;;5051106;28;20484;-78
2021/04/23 02:50:25;;;;;;;4.18;2.70;;;4.80;1.00;;;;;;5058648;28;20505;-78
2021/04/23 02:52:51;;;;;;;10.10;4.10;;;4.70;1.00;;;;;;5061108;28;20052;-77
2021/04/23 02:55:17;;;;;;;6.72;3.05;;;4.70;1.00;;;;;;5057386;28;20039;-76
2021/04/23 02:58:11;;;;;;;7.43;3.08;;;4.70;1.00;;;;;;5058710;28;20108;-77
2021/04/23 03:00:45;;;;;;;9.60;3.63;;;4.70;1.00;;;;;;5057848;28;20029;-76
2021/04/23 03:03:11;;;;;;;11.77;3.70;;;4.70;1.00;;;;;;5067297;28;20442;-77
2021/04/23 03:05:42;;;;;;;7.97;3.20;;;4.60;1.00;;;;;;5066454;28;20033;-77
2021/04/23 03:08:09;;;;;;;4.55;3.20;;;4.60;1.00;;;;;;5064997;28;20071;-79
2021/04/23 03:10:37;;;;;;;8.88;3.13;;;4.60;1.00;;;;;;5051629;28;20056;-77
2021/04/23 03:13:13;;;;;;;8.35;3.30;;;4.60;1.00;;;;;;5051102;28;20037;-78
2021/04/23 03:15:39;;;;;;;5.35;3.08;;;4.60;1.00;;;;;;5064049;28;20040;-79
2021/04/23 03:18:09;;;;;;;8.57;3.30;;;4.60;1.00;;;;;;5061930;28;20017;-80
2021/04/23 03:20:34;;;;;;;11.60;3.80;;;4.50;1.00;;;;;;5049799;28;20029;-77
2021/04/23 03:23:00;;;;;;;8.93;4.75;;;4.50;1.00;;;;;;5063607;28;20021;-79
2021/04/23 03:25:28;;;;;;;12.40;3.83;;;4.50;1.00;;;;;;5049712;28;20032;-78
2021/04/23 03:27:54;;;;;;;10.02;4.30;;;4.50;1.00;;;;;;5056214;28;20048;-77
2021/04/23 03:30:28;;;;;;;7.90;4.68;;;4.60;1.00;;;;;;5065618;28;20029;-78
2021/04/23 03:33:00;;;;;;;13.65;4.55;;;4.50;18.70;;;;;;5060599;28;20487;-79
2021/04/23 03:35:27;;;;;;;12.25;3.90;;;4.50;6.80;;;;;;5054570;28;20028;-78
2021/04/23 03:37:53;;;;;;;5.97;3.88;;;4.40;90.10;;;;;;5051528;28;20101;-80
2021/04/23 03:40:21;;;;;;;8.57;3.88;;;4.40;99.90;;;;;;5042894;28;20098;-79
2021/04/23 03:42:48;;;;;;;9.20;3.67;;;4.40;96.60;;;;;;5050996;28;20045;-78
2021/04/23 03:45:24;;;;;;;10.63;4.15;;;4.30;97.20;;;;;;5047854;28;20041;-77
2021/04/23 03:47:51;;;;;;;11.38;3.53;;;4.40;91.10;;;;;;5063878;28;20024;-75
2021/04/23 03:50:23;;;;;;;7.32;2.97;;;4.40;25.90;;;;;;5055451;28;20033;-76
2021/04/23 03:52:51;;;;;;;7.82;2.85;;;4.40;24.90;;;;;;5063310;28;20049;-79
2021/04/23 03:55:24;;;;;;;11.88;3.90;;;4.30;64.00;;;;;;5058468;28;20443;-77
2021/04/23 03:57:50;;;;;;;10.52;4.20;;;4.30;72.40;;;;;;5075957;28;20035;-75
2021/04/23 04:00:22;;;;;;;7.90;4.18;;;4.20;99.90;;;;;;5061073;28;20013;-76
2021/04/23 04:02:48;;;;;;;9.65;3.97;;;4.10;99.90;;;;;;5062702;28;20088;-75
2021/04/23 04:05:15;;;;;;;12.25;4.97;;;4.10;99.90;;;;;;5065733;28;20029;-79
2021/04/23 04:07:41;;;;;;;8.90;4.38;;;4.10;99.90;;;;;;5048476;28;20080;-77
2021/04/23 04:10:09;;;;;;;10.43;3.90;;;4.10;99.90;;;;;;5059384;28;20047;-78
2021/04/23 04:12:35;;;;;;;9.38;5.45;;;4.00;99.90;;;;;;5057031;28;20017;-77
2021/04/23 04:15:01;;;;;;;6.47;3.97;;;4.10;99.90;;;;;;5065477;28;20029;-77
2021/04/23 04:17:27;;;;;;;9.30;4.85;;;4.20;99.90;;;;;;5057366;28;20030;-77
2021/04/23 04:19:53;;;;;;;10.48;4.85;;;4.10;99.90;;;;;;5061216;28;20022;-77
2021/04/23 04:22:19;;;;;;;6.45;4.07;;;4.10;99.90;;;;;;5063644;28;20029;-78
2021/04/23 04:24:44;;;;;;;11.45;4.40;;;4.20;99.90;;;;;;5068164;28;20032;-77
2021/04/23 04:27:10;;;;;;;9.93;3.97;;;4.20;99.90;;;;;;5081081;23;20236;-77
2021/04/23 04:29:36;;;;;;;7.63;4.13;;;4.30;99.90;;;;;;5032472;28;20120;-77
2021/04/23 04:32:01;;;;;;;8.52;4.40;;;4.20;99.90;;;;;;5026817;28;20033;-77
2021/04/23 04:34:27;;;;;;;9.43;4.07;;;4.20;99.90;;;;;;5019908;28;20037;-78
2021/04/23 04:36:53;;;;;;;8.32;4.15;;;4.30;99.90;;;;;;5036085;28;20045;-77
2021/04/23 04:39:19;;;;;;;7.05;4.63;;;4.40;99.90;;;;;;5038678;28;20029;-78
2021/04/23 04:41:45;;;;;;;14.48;4.90;;;4.60;99.90;;;;;;5032448;28;20429;-77
2021/04/23 04:44:10;;;;;;;12.15;4.57;;;4.80;85.90;;;;;;5032239;28;20089;-77
2021/04/23 04:46:36;;;;;;;9.05;4.63;;;5.00;35.10;;;;;;5022991;28;20021;-76
2021/04/23 04:49:02;;;;;;;10.18;4.32;;;5.30;1.00;;;;;;5029079;28;20087;-77
2021/04/23 04:51:28;;;;;;;12.80;4.97;;;5.50;1.00;;;;;;5032012;28;20029;-77
2021/04/23 04:53:54;;;;;;;12.45;4.72;;;5.80;1.00;;;;;;5033007;28;20068;-76
2021/04/23 04:56:19;;;;;;;14.30;5.03;;;6.10;99.90;;;;;;5041550;28;20026;-76
2021/04/23 04:58:45;;;;;;;11.57;5.00;;;6.20;99.90;;;;;;5053381;28;20025;-77
2021/04/23 05:01:14;;;;;;;12.07;4.50;;;6.60;99.90;;;;;;5043152;28;20028;-77
2021/04/23 05:03:40;;;;;;;8.70;5.00;;;6.80;40.00;;;;;;5044580;28;20093;-76
2021/04/23 05:06:08;;;;;;;10.98;4.70;;;7.20;1.00;;;;;;5036343;28;20447;-76
2021/04/23 05:08:33;;;;;;;15.45;5.63;;;7.50;99.90;;;;;;5029050;28;20029;-76
2021/04/23 05:10:59;;;;;;;8.55;4.95;;;7.80;99.90;;;;;;5016374;28;20052;-76
2021/04/23 05:13:24;;;;;;;10.35;4.93;;;8.50;99.90;;;;;;5031278;28;20416;-76
2021/04/23 05:15:50;;;;;;;8.85;4.78;;;8.90;1.00;;;;;;5030510;28;20053;-76
2021/04/23 05:18:15;;;;;;;13.35;5.53;;;9.10;99.90;;;;;;5029867;28;20029;-76
2021/04/23 05:20:41;;;;;;;11.02;4.80;;;9.40;18.10;;;;;;5021356;28;20025;-77
2021/04/23 05:23:08;;;;;;;8.63;4.50;;;10.00;1.00;;;;;;5020242;28;20029;-76
2021/04/23 05:25:35;;;;;;;10.35;4.93;;;10.10;99.90;;;;;;5028273;28;20574;-78
2021/04/23 05:28:02;;;;;;;12.90;6.03;;;10.80;1.00;;;;;;5032296;28;20030;-78
2021/04/23 05:30:32;;;;;;;13.50;5.43;;;10.20;1.00;;;;;;5025797;28;20060;-77
2021/04/23 05:32:59;;;;;;;15.83;5.87;;;10.90;99.90;;;;;;5032217;28;20030;-77
2021/04/23 05:35:26;;;;;;;16.65;6.95;;;10.60;99.90;;;;;;5032798;28;20113;-77
2021/04/23 05:37:52;;;;;;;12.07;5.93;;;10.50;99.90;;;;;;5029699;28;20045;-77
2021/04/23 05:40:21;;;;;;;13.68;6.03;;;10.30;99.90;;;;;;5021246;28;20033;-77
2021/04/23 05:42:46;;;;;;;18.48;6.57;;;10.40;99.90;;;;;;5033781;28;20551;-78
2021/04/23 05:45:13;;;;;;;12.68;6.05;;;9.90;99.90;;;;;;5033631;28;20060;-77
2021/04/23 05:47:39;;;;;;;14.25;6.10;;;10.40;99.90;;;;;;5029625;28;20120;-77
2021/04/23 05:50:07;;;;;;;16.45;6.32;;;9.80;99.90;;;;;;5029864;28;20022;-77
2021/04/23 05:52:33;;;;;;;13.07;6.60;;;9.90;99.90;;;;;;5026577;28;20396;-79
2021/04/23 05:54:58;;;;;;;17.05;6.82;;;10.50;99.90;;;;;;5021998;28;20033;-77
2021/04/23 05:57:25;;;;;;;13.38;6.97;;;10.00;99.90;;;;;;5034020;28;20029;-76
2021/04/23 05:59:51;;;;;;;14.05;6.10;;;9.80;99.90;;;;;;5029187;28;20021;-80
2021/04/23 06:02:16;;;;;;;10.63;6.38;;;9.50;99.90;;;;;;5034753;28;20356;-78
2021/04/23 06:04:42;;;;;;;10.23;6.05;;;8.80;99.90;;;;;;5031443;28;20397;-77
2021/04/23 06:07:07;;;;;;;10.35;6.00;;;8.90;1.00;;;;;;5033922;28;20064;-77
2021/04/23 06:09:33;;;;;;;10.20;6.20;;;9.10;99.90;;;;;;5028239;28;20017;-77
2021/04/23 06:11:59;;;;;;;10.02;6.78;;;8.70;99.90;;;;;;5048325;28;20037;-76
2021/04/23 06:14:24;;;;;;;13.82;6.93;;;8.60;5.30;;;;;;5049059;28;20034;-78
2021/04/23 06:16:54;;;;;;;12.75;6.70;;;8.10;1.60;;;;;;5035882;28;20101;-79
2021/04/23 06:19:20;;;;;;;11.18;6.50;;;8.30;1.00;;;;;;5028007;28;20041;-78
2021/04/23 06:21:47;;;;;;;13.93;8.05;;;8.20;1.00;;;;;;5035208;28;20100;-78
2021/04/23 06:24:12;;;;;;;14.80;8.43;;;7.80;1.00;;;;;;5032169;28;20033;-78
2021/04/23 06:26:38;;;;;;;13.75;6.80;;;8.10;99.90;;;;;;5036393;28;20033;-79
2021/04/23 06:29:04;;;;;;;10.32;6.57;;;8.10;1.00;;;;;;5041754;28;20029;-78
2021/04/23 06:31:30;;;;;;;12.68;7.57;;;8.40;80.50;;;;;;5020397;28;20038;-78
2021/04/23 06:33:55;;;;;;;15.40;7.28;;;8.10;1.00;;;;;;5025000;28;20076;-77
2021/04/23 06:36:21;;;;;;;15.13;7.72;;;8.40;99.90;;;;;;5027610;28;20022;-77
2021/04/23 06:38:48;;;;;;;13.90;7.13;;;8.40;99.10;;;;;;5037458;28;20021;-78
2021/04/23 06:41:14;;;;;;;11.20;6.70;;;8.60;1.00;;;;;;5037205;28;20105;-78
2021/04/23 06:43:43;;;;;;;16.58;8.40;;;8.50;1.00;;;;;;5040567;28;20107;-77
2021/04/23 06:46:09;;;;;;;11.55;6.10;;;8.40;50.10;;;;;;5038280;28;20083;-76
2021/04/23 06:48:34;;;;;;;18.27;7.78;;;8.70;99.90;;;;;;5031695;28;20480;-77
2021/04/23 06:51:04;;;;;;;14.43;7.45;;;8.70;99.90;;;;;;5032172;28;20037;-77
2021/04/23 06:53:31;;;;;;;15.23;7.50;;;9.00;99.90;;;;;;5025260;28;20022;-78
2021/04/23 06:55:57;;;;;;;19.90;8.10;;;8.90;49.80;;;;;;5028543;28;20036;-78
2021/04/23 06:58:23;;;;;;;11.43;6.95;;;8.80;99.90;;;;;;5034889;28;20025;-77
2021/04/23 07:00:49;;;;;;;16.73;6.60;;;9.00;58.70;;;;;;5020490;28;20026;-77
2021/04/23 07:03:14;;;;;;;18.55;7.72;;;9.20;1.00;;;;;;5028989;28;20075;-77
2021/04/23 07:05:44;;;;;;;15.93;7.00;;;8.80;1.00;;;;;;5025582;28;20030;-77
2021/04/23 07:08:10;;;;;;;15.13;6.15;;;8.80;72.70;;;;;;5014953;28;20021;-78
2021/04/23 07:10:37;;;;;;;13.45;6.90;;;9.20;99.90;;;;;;5019749;28;20532;-76
2021/04/23 07:13:04;;;;;;;9.68;5.25;;;9.30;99.90;;;;;;5038287;28;20037;-77
2021/04/23 07:15:31;;;;;;;12.80;5.57;;;9.50;1.00;;;;;;5033997;28;20032;-76
2021/04/23 07:17:57;;;;;;;9.70;5.30;;;9.70;99.90;;;;;;5038381;28;20075;-77
2021/04/23 07:20:24;;;;;;;9.40;5.97;;;9.80;1.00;;;;;;5035841;28;20021;-77
2021/04/23 07:22:51;;;;;;;13.20;7.15;;;9.80;99.90;;;;;;5024824;28;20510;-77
2021/04/23 07:25:17;;;;;;;20.67;7.05;;;9.90;1.00;;;;;;5028699;28;20052;-77
2021/04/23 07:27:43;;;;;;;15.07;6.55;;;10.10;99.90;;;;;;5028218;28;20026;-77
2021/04/23 07:30:15;;;;;;;13.40;6.20;;;10.20;99.90;;;;;;5025494;28;20044;-78
2021/04/23 07:32:41;;;;;;;14.60;5.88;;;10.30;99.90;;;;;;5034036;28;20565;-77
2021/04/23 07:35:08;;;;;;;12.13;6.60;;;10.50;99.90;;;;;;5033539;28;20045;-77
2021/04/23 07:37:34;;;;;;;10.27;5.47;;;10.40;99.90;;;;;;5036070;28;20108;-76
2021/04/23 07:40:00;;;;;;;10.32;5.45;;;10.60;99.90;;;;;;5041296;28;20085;-77
2021/04/23 07:42:27;;;;;;;16.05;5.90;;;10.60;99.90;;;;;;5029810;28;20054;-77
2021/04/23 07:44:55;;;;;;;24.60;7.20;;;10.70;96.30;;;;;;5015477;28;20026;-77
2021/04/23 07:47:21;;;;;;;14.35;5.50;;;10.50;99.90;;;;;;5024589;28;20093;-77
2021/04/23 07:49:47;;;;;;;16.30;5.32;;;10.80;99.90;;;;;;5014624;28;20436;-78
2021/04/23 07:52:13;;;;;;;11.48;5.55;;;10.90;30.70;;;;;;5017016;28;20440;-77
2021/04/23 07:54:39;;;;;;;12.48;5.18;;;10.70;8.20;;;;;;5030309;28;20033;-77
2021/04/23 07:57:05;;;;;;;13.48;4.63;;;10.70;17.70;;;;;;5029264;28;20079;-77
2021/04/23 07:59:30;;;;;;;15.43;5.50;;;10.40;30.70;;;;;;5023207;28;20064;-78
2021/04/23 08:01:56;;;;;;;13.68;5.22;;;10.60;40.30;;;;;;5031530;28;20084;-77
2021/04/23 08:04:22;;;;;;;12.23;5.30;;;10.70;17.90;;;;;;5033213;28;20028;-77
2021/04/23 08:06:48;;;;;;;15.73;5.43;;;10.80;1.00;;;;;;5032760;28;20029;-77
2021/04/23 08:09:14;;;;;;;13.77;5.35;;;10.60;13.80;;;;;;5029611;28;20037;-77
2021/04/23 08:11:40;;;;;;;12.52;5.30;;;11.10;1.00;;;;;;5031628;28;20046;-77
2021/04/23 08:14:06;;;;;;;11.43;5.07;;;11.40;1.00;;;;;;5031561;28;20040;-77
2021/04/23 08:16:32;;;;;;;12.05;5.47;;;11.30;1.00;;;;;;5032036;28;20075;-77
2021/04/23 08:18:57;;;;;;;12.70;6.60;;;11.60;1.00;;;;;;5033034;28;20021;-78
2021/04/23 08:21:23;;;;;;;11.27;5.32;;;11.70;1.00;;;;;;5033253;28;20072;-77
2021/04/23 08:23:49;;;;;;;16.15;5.32;;;11.60;1.00;;;;;;5023575;28;20366;-80
2021/04/23 08:26:16;;;;;;;12.70;5.55;;;11.90;1.00;;;;;;5019216;28;20476;-77
2021/04/23 08:28:42;;;;;;;11.07;5.40;;;12.10;1.00;;;;;;5017150;28;20033;-78
2021/04/23 08:31:08;;;;;;;12.18;5.15;;;12.20;1.00;;;;;;5024089;28;20026;-77
2021/04/23 08:33:34;;;;;;;15.40;6.65;;;12.30;99.90;;;;;;5034251;28;20088;-77
2021/04/23 08:36:00;;;;;;;13.43;5.07;;;12.20;99.90;;;;;;5034996;28;20030;-77
2021/04/23 08:38:25;;;;;;;11.25;5.32;;;12.10;99.90;;;;;;5033827;28;20033;-78
2021/04/23 08:40:53;;;;;;;14.98;7.35;;;12.10;99.90;;;;;;5015397;28;20182;-77
2021/04/23 08:43:19;;;;;;;13.88;6.25;;;12.60;99.90;;;;;;5014805;28;20443;-74
2021/04/23 08:45:44;;;;;;;8.45;4.82;;;12.70;99.90;;;;;;5029346;28;20160;-76
2021/04/23 08:48:11;;;;;;;12.52;5.63;;;12.50;99.90;;;;;;5032378;28;20021;-75
2021/04/23 08:50:37;;;;;;;7.05;4.60;;;12.50;99.90;;;;;;5046540;28;20468;-73
2021/04/23 08:53:05;;;;;;;13.85;5.47;;;12.90;99.90;;;;;;5026339;28;20334;-73
2021/04/23 08:55:31;;;;;;;12.82;5.22;;;12.80;99.90;;;;;;5032964;28;20036;-73
2021/04/23 08:57:56;;;;;;;11.50;6.38;;;12.90;99.90;;;;;;5046314;28;20005;-72
2021/04/23 09:00:22;;;;;;;14.93;6.00;;;13.30;99.90;;;;;;5042109;28;20062;-75
2021/04/23 09:02:48;;;;;;;14.55;6.00;;;13.20;99.90;;;;;;5038071;28;20029;-72
2021/04/23 09:05:15;;;;;;;13.30;6.00;;;13.10;99.90;;;;;;5035166;28;20026;-73
2021/04/23 09:07:41;;;;;;;14.05;5.82;;;12.90;99.90;;;;;;5033084;28;20480;-74
2021/04/23 09:10:13;;;;;;;14.18;6.10;;;13.10;99.90;;;;;;5034314;28;20028;-72
2021/04/23 09:12:39;;;;;;;11.32;5.47;;;13.20;99.90;;;;;;5034652;28;20076;-73
2021/04/23 09:15:23;;;;;;;10.30;5.88;;;13.20;99.90;;;;;;5034573;28;20029;-74
2021/04/23 09:18:13;;;;;;;13.40;5.47;;;13.00;99.90;;;;;;5035241;28;20029;-72
2021/04/23 09:20:42;;;;;;;12.00;5.25;;;13.40;99.90;;;;;;5033047;28;20124;-73
2021/04/23 09:23:21;;;;;;;11.13;5.63;;;13.50;99.90;;;;;;5031550;28;20032;-74
2021/04/23 09:25:47;;;;;;;11.73;4.97;;;13.40;99.90;;;;;;5035681;28;20173;-74
2021/04/23 09:28:15;;;;;;;8.57;4.65;;;13.30;99.90;;;;;;5034213;28;20040;-74
2021/04/23 09:30:42;;;;;;;9.73;5.07;;;13.20;99.90;;;;;;5051420;28;20536;-74
2021/04/23 09:33:27;;;;;;;9.32;4.55;;;13.60;99.90;;;;;;5044993;28;20033;-73
2021/04/23 09:35:53;;;;;;;9.43;5.03;;;13.30;99.90;;;;;;5044673;28;20601;-73
2021/04/23 09:38:19;;;;;;;11.68;4.60;;;12.80;99.90;;;;;;5049143;28;20041;-73
2021/04/23 09:40:45;;;;;;;12.65;5.30;;;13.00;99.90;;;;;;5038497;28;20043;-72
2021/04/23 09:43:11;;;;;;;9.57;5.32;;;13.30;99.90;;;;;;5028910;28;20509;-75
2021/04/23 09:45:52;;;;;;;11.77;5.18;;;13.30;99.90;;;;;;5018699;28;20026;-73
2021/04/23 09:48:26;;;;;;;9.82;5.22;;;13.60;99.90;;;;;;5015118;28;20026;-72
2021/04/23 09:50:53;;;;;;;9.10;4.43;;;13.50;99.90;;;;;;5031414;28;20055;-75
2021/04/23 09:53:31;;;;;;;8.88;4.43;;;13.30;99.90;;;;;;5026381;28;20029;-73
2021/04/23 09:55:57;;;;;;;14.52;5.53;;;13.40;99.90;;;;;;5032599;28;20029;-76
2021/04/23 09:58:22;;;;;;;9.77;4.88;;;13.70;99.90;;;;;;5033863;28;20515;-75
2021/04/23 10:00:56;;;;;;;12.90;4.95;;;13.80;99.90;;;;;;5027611;28;20022;-75
2021/04/23 10:03:31;;;;;;;10.52;5.10;;;14.10;99.90;;;;;;5020732;28;20033;-75
2021/04/23 10:05:57;;;;;;;12.40;5.13;;;14.10;99.90;;;;;;5037638;28;20126;-74
2021/04/23 10:08:27;;;;;;;13.00;6.10;;;13.60;99.90;;;;;;5037779;28;20029;-75
2021/04/23 10:10:55;;;;;;;12.30;4.85;;;13.40;99.90;;;;;;5035179;28;20088;-75
2021/04/23 10:13:41;;;;;;;10.50;5.30;;;13.70;99.90;;;;;;5038745;28;20031;-76
2021/04/23 10:16:07;;;;;;;7.80;5.22;;;13.90;99.90;;;;;;5036587;28;20060;-77
2021/04/23 10:18:32;;;;;;;11.15;5.45;;;14.30;99.90;;;;;;5035924;28;20468;-75
2021/04/23 10:20:59;;;;;;;12.05;4.32;;;14.20;99.90;;;;;;5038750;28;20045;-75
2021/04/23 10:23:26;;;;;;;8.68;4.20;;;14.20;99.90;;;;;;5041304;28;20408;-76
2021/04/23 10:25:53;;;;;;;11.85;5.13;;;13.90;97.60;;;;;;5035987;28;20024;-75
2021/04/23 10:28:22;;;;;;;9.23;4.05;;;14.10;93.20;;;;;;5059280;22;20029;-72
2021/04/23 10:30:50;;;;;;;8.25;3.90;;;14.20;90.50;;;;;;5044183;28;20034;-73
2021/04/23 10:33:21;;;;;;;10.48;4.10;;;14.30;80.70;;;;;;5029096;28;20115;-73
2021/04/23 10:35:51;;;;;;;9.77;4.72;;;14.90;69.10;;;;;;5016607;28;20133;-73
2021/04/23 10:38:19;;;;;;;11.77;4.38;;;14.90;66.40;;;;;;5015925;28;20053;-73
2021/04/23 10:40:53;;;;;;;8.52;3.95;;;15.00;61.40;;;;;;5030596;28;20049;-73
2021/04/23 10:43:19;;;;;;;8.30;3.90;;;14.50;46.20;;;;;;5015889;28;20417;-74
2021/04/23 10:46:00;;;;;;;9.05;4.22;;;14.30;41.80;;;;;;5024534;28;20036;-73
2021/04/23 10:48:38;;;;;;;11.55;5.18;;;14.20;42.00;;;;;;5024401;28;20053;-74
2021/04/23 10:51:26;;;;;;;11.45;4.70;;;14.10;51.20;;;;;;5035197;28;20099;-73
2021/04/23 10:53:53;;;;;;;8.38;3.97;;;14.00;44.90;;;;;;5034221;28;20092;-73
2021/04/23 10:56:35;;;;;;;10.60;5.03;;;14.10;41.20;;;;;;5046877;28;20112;-72
2021/04/23 10:59:03;;;;;;;10.88;5.75;;;14.10;39.10;;;;;;5027942;28;20053;-72
2021/04/23 11:01:40;;;;;;;8.73;4.50;;;14.40;39.40;;;;;;5029288;28;20095;-72
2021/04/23 11:04:10;;;;;;;8.40;3.95;;;14.50;30.90;;;;;;5027429;28;20030;-72
2021/04/23 11:06:50;;;;;;;8.82;5.15;;;14.90;34.70;;;;;;5027013;28;20024;-74
2021/04/23 11:09:21;;;;;;;11.90;6.05;;;15.20;32.30;;;;;;5034137;28;20477;-73
2021/04/23 11:12:05;;;;;;;12.55;5.00;;;15.30;31.40;;;;;;5035837;28;20033;-74
2021/04/23 11:14:32;;;;;;;11.77;5.93;;;15.20;28.60;;;;;;5018353;28;20026;-72
2021/04/23 11:17:16;;;;;;;10.63;5.65;;;14.80;27.80;;;;;;5019936;28;20488;-73
2021/04/23 11:19:44;;;;;;;10.93;4.55;;;15.10;27.60;;;;;;5033633;28;20026;-73
2021/04/23 11:22:18;;;;;;;7.93;4.70;;;15.50;24.90;;;;;;5017371;28;20050;-74
2021/04/23 11:25:02;;;;;;;9.82;4.50;;;15.70;22.80;;;;;;5017412;28;20393;-74
2021/04/23 11:27:28;;;;;;;5.63;4.97;;;15.70;19.50;;;;;;5031025;28;20033;-73
2021/04/23 11:29:54;;;;;;;9.88;5.38;;;15.60;19.40;;;;;;5028002;28;20029;-72
2021/04/23 11:32:22;;;;;;;9.90;4.63;;;15.60;17.00;;;;;;5034233;28;20052;-71
2021/04/23 11:35:15;;;;;;;11.27;5.03;;;15.50;14.00;;;;;;5035823;28;20025;-72
2021/04/23 11:37:40;;;;;;;12.32;5.22;;;15.40;14.20;;;;;;5031368;28;20029;-73
2021/04/23 11:40:25;;;;;;;10.60;4.40;;;15.80;13.80;;;;;;5035657;28;20033;-73
2021/04/23 11:42:57;;;;;;;8.23;3.65;;;16.00;11.20;;;;;;5015910;28;20030;-75
2021/04/23 11:45:24;;;;;;;10.02;4.25;;;16.00;7.20;;;;;;5020218;28;20056;-74
2021/04/23 11:47:53;;;;;;;6.00;4.05;;;16.20;3.80;;;;;;5025957;28;20044;-76
2021/04/23 11:50:35;;;;;;;6.53;4.05;;;16.40;1.00;;;;;;5028411;28;20022;-73
2021/04/23 11:53:06;;;;;;;11.95;5.10;;;16.40;1.00;;;;;;5036877;28;20026;-71
2021/04/23 11:55:34;;;;;;;6.35;3.67;;;16.10;1.00;;;;;;5040382;28;20044;-72
2021/04/23 11:58:11;;;;;;;8.57;4.57;;;16.20;1.00;;;;;;5032718;28;20125;-72
2021/04/23 12:00:45;;;;;;;6.78;3.80;;;16.00;1.00;;;;;;5016605;28;20028;-73
2021/04/23 12:03:12;;;;;;;8.52;3.67;;;16.10;1.00;;;;;;5015309;28;20101;-72
2021/04/23 12:05:45;;;;;;;7.00;3.10;;;16.00;1.00;;;;;;5032120;28;20080;-73
2021/04/23 12:08:16;;;;;;;9.32;4.03;;;15.90;1.00;;;;;;5033647;28;20523;-72
2021/04/23 12:10:42;;;;;;;;;;;16.30;1.00;;;;;;5016589;28;20034;-73
2021/04/23 12:13:17;;;;;;;4.70;2.72;;;16.40;1.00;;;;;;5018272;28;19963;-72
2021/04/23 12:15:45;;;;;;;4.18;3.28;;;16.30;1.00;;;;;;5032511;28;20025;-72
2021/04/23 12:18:12;;;;;;;4.32;2.58;;;16.40;1.00;;;;;;5011269;28;20026;-72
2021/04/23 12:20:48;;;;;;;5.00;3.13;;;16.30;1.00;;;;;;5014597;28;20436;-75
2021/04/23 12:23:16;;;;;;;6.65;3.10;;;16.20;1.00;;;;;;5036064;28;20485;-73
2021/04/23 12:25:47;;;;;;;10.65;3.08;;;15.70;1.00;;;;;;5036010;28;20038;-72
2021/04/23 12:28:34;;;;;;;5.10;3.30;;;15.90;1.00;;;;;;5035429;28;20033;-72
2021/04/23 12:31:10;;;;;;;4.43;3.38;;;16.40;1.00;;;;;;5034470;28;20030;-72
2021/04/23 12:33:47;;;;;;;7.85;4.40;;;16.50;1.00;;;;;;5016722;28;20022;-72
2021/04/23 12:36:25;;;;;;;7.63;4.63;;;16.70;1.00;;;;;;5019930;28;20028;-73
2021/04/23 12:38:54;;;;;;;12.23;5.80;;;16.00;1.00;;;;;;5033128;28;20047;-73
2021/04/23 12:41:53;;;;;;;9.75;4.70;;;15.80;1.00;;;;;;5026167;28;20014;-73
2021/04/23 12:44:21;;;;;;;9.07;4.22;;;15.50;1.00;;;;;;5034989;28;20071;-73
2021/04/23 12:46:49;;;;;;;7.40;4.45;;;15.70;1.00;;;;;;5025670;28;20021;-73
2021/04/23 12:49:25;;;;;;;9.27;4.47;;;15.60;1.00;;;;;;5039676;28;20033;-72
2021/04/23 12:51:58;;;;;;;11.75;5.28;;;15.80;1.00;;;;;;5031499;28;20028;-73
2021/04/23 12:54:33;;;;;;;11.65;5.90;;;16.00;1.00;;;;;;5039733;28;20032;-73
2021/04/23 12:57:04;;;;;;;9.52;4.70;;;16.30;1.00;;;;;;5038271;28;20025;-73
2021/04/23 12:59:42;;;;;;;8.32;4.47;;;16.50;1.00;;;;;;5031930;28;20022;-73